createdAt,value
2022-10-19T00:02:38.451Z,36.21
2022-10-19T00:05:42.923Z,36.49
2022-10-19T00:08:46.293Z,36.46
2022-10-19T00:11:51.106Z,36.43
2022-10-19T00:14:54.123Z,36.34
2022-10-19T00:17:57.423Z,36.75
2022-10-19T00:21:06.149Z,36.35
2022-10-19T00:24:10.032Z,36.25
2022-10-19T00:27:13.070Z,36.19
2022-10-19T00:30:16.107Z,36.53
2022-10-19T00:33:22.101Z,36.30
2022-10-19T00:36:30.842Z,36.28
2022-10-19T00:39:34.158Z,36.41
2022-10-19T00:42:37.166Z,36.62
2022-10-19T00:45:40.314Z,36.24
2022-10-19T00:48:43.460Z,36.38
2022-10-19T00:51:51.207Z,36.27
2022-10-19T00:54:55.789Z,36.25
2022-10-19T00:57:59.161Z,36.20
2022-10-19T01:01:05.863Z,36.31
2022-10-19T01:04:10.861Z,36.39
2022-10-19T01:07:15.826Z,36.17
2022-10-19T01:10:22.002Z,36.28
2022-10-19T01:13:37.776Z,36.30
2022-10-19T01:16:51.126Z,36.20
2022-10-19T01:20:27.502Z,36.12
2022-10-19T01:24:04.754Z,36.14
2022-10-19T01:27:36.596Z,36.01
2022-10-19T01:30:50.392Z,36.13
2022-10-19T01:34:00.065Z,36.22
2022-10-19T01:37:08.952Z,36.18
2022-10-19T01:40:16.602Z,36.21
2022-10-19T01:43:27.387Z,36.27
2022-10-19T01:46:38.542Z,36.09
2022-10-19T01:49:45.866Z,36.29
2022-10-19T01:52:51.885Z,36.18
2022-10-19T01:55:57.290Z,36.12
2022-10-19T01:59:04.724Z,36.26
2022-10-19T02:02:11.303Z,36.04
2022-10-19T02:05:15.502Z,35.79
2022-10-19T02:08:25.982Z,36.02
2022-10-19T02:11:30.114Z,35.94
2022-10-19T02:14:38.474Z,36.01
2022-10-19T02:17:47.711Z,36.13
2022-10-19T02:20:50.783Z,36.10
2022-10-19T02:23:54.320Z,36.31
2022-10-19T02:26:58.170Z,36.23
2022-10-19T02:30:01.234Z,36.22
2022-10-19T02:33:05.707Z,36.23
2022-10-19T02:36:09.388Z,36.23
2022-10-19T02:39:12.450Z,36.15
2022-10-19T02:42:21.494Z,36.19
2022-10-19T02:45:29.768Z,35.98
2022-10-19T02:48:35.183Z,35.97
2022-10-19T02:51:40.263Z,35.92
2022-10-19T02:54:45.704Z,36.14
2022-10-19T02:57:48.751Z,36.18
2022-10-19T03:00:51.809Z,35.95
2022-10-19T03:03:56.282Z,36.01
2022-10-19T03:06:59.271Z,36.05
2022-10-19T03:10:02.328Z,36.51
2022-10-19T03:13:05.364Z,35.98
2022-10-19T03:16:09.500Z,36.19
2022-10-19T03:19:13.937Z,36.39
2022-10-19T03:22:16.973Z,36.29
2022-10-19T03:25:20.102Z,34.82
2022-10-19T03:28:23.087Z,34.26
2022-10-19T03:31:27.264Z,33.96
2022-10-19T03:34:31.660Z,33.92
2022-10-19T03:37:34.960Z,33.44
2022-10-19T03:40:38.166Z,33.26
2022-10-19T03:43:41.321Z,33.50
2022-10-19T03:46:44.356Z,33.03
2022-10-19T03:49:50.582Z,33.03
2022-10-19T03:52:53.632Z,33.25
2022-10-19T03:56:02.793Z,33.18
2022-10-19T03:59:07.438Z,33.39
2022-10-19T04:02:10.577Z,34.29
2022-10-19T04:05:15.094Z,34.23
2022-10-19T04:08:18.151Z,34.22
2022-10-19T04:11:23.533Z,33.32
2022-10-19T04:14:32.526Z,34.66
2022-10-19T04:17:36.228Z,33.56
2022-10-19T04:20:42.855Z,32.92
2022-10-19T04:23:45.938Z,32.74
2022-10-19T04:26:51.356Z,32.46
2022-10-19T04:29:54.384Z,32.29
2022-10-19T04:32:57.538Z,32.11
2022-10-19T04:36:02.946Z,32.01
2022-10-19T04:39:06.910Z,31.84
2022-10-19T04:42:09.911Z,31.99
2022-10-19T04:45:13.042Z,32.10
2022-10-19T04:48:16.028Z,31.68
2022-10-19T04:51:21.255Z,32.05
2022-10-19T04:54:24.367Z,31.79
2022-10-19T04:57:27.365Z,31.56
2022-10-19T05:00:30.379Z,31.99
2022-10-19T05:03:33.423Z,32.20
2022-10-19T05:06:37.871Z,31.95
2022-10-19T05:09:41.927Z,32.11
2022-10-19T05:12:45.006Z,32.20
2022-10-19T05:15:57.084Z,31.73
2022-10-19T05:19:00.114Z,31.85
2022-10-19T05:22:04.562Z,31.61
2022-10-19T05:25:08.773Z,31.70
2022-10-19T05:28:11.799Z,31.76
2022-10-19T05:31:16.769Z,31.81
2022-10-19T05:34:20.051Z,31.73
2022-10-19T05:37:25.810Z,31.80
2022-10-19T05:40:28.863Z,31.65
2022-10-19T05:43:31.836Z,31.80
2022-10-19T05:46:35.572Z,31.93
2022-10-19T05:49:38.589Z,31.54
2022-10-19T05:52:42.987Z,31.82
2022-10-19T05:55:45.968Z,31.92
2022-10-19T05:58:50.015Z,32.09
2022-10-19T06:01:53.181Z,31.74
2022-10-19T06:04:56.186Z,31.75
2022-10-19T06:08:00.714Z,31.73
2022-10-19T06:11:08.386Z,31.51
2022-10-19T06:14:14.468Z,31.52
2022-10-19T06:17:17.506Z,31.52
2022-10-19T06:20:20.473Z,31.35
2022-10-19T06:23:24.883Z,31.68
2022-10-19T06:26:28.495Z,31.42
2022-10-19T06:29:31.499Z,31.48
2022-10-19T06:32:34.556Z,31.25
2022-10-19T06:35:38.486Z,31.13
2022-10-19T06:38:44.054Z,31.03
2022-10-19T06:41:47.051Z,31.00
2022-10-19T06:44:50.143Z,31.09
2022-10-19T06:47:53.158Z,31.05
2022-10-19T06:50:59.820Z,30.76
2022-10-19T06:54:04.323Z,30.61
2022-10-19T06:57:08.156Z,30.49
2022-10-19T07:00:12.816Z,30.67
2022-10-19T07:03:15.813Z,30.69
2022-10-19T07:06:18.948Z,30.72
2022-10-19T07:09:23.576Z,30.42
2022-10-19T07:12:26.591Z,30.62
2022-10-19T07:15:29.605Z,30.47
2022-10-19T07:18:33.066Z,30.31
2022-10-19T07:21:41.716Z,30.13
2022-10-19T07:24:46.628Z,30.00
2022-10-19T07:27:49.613Z,30.21
2022-10-19T07:30:52.695Z,29.88
2022-10-19T07:33:56.840Z,29.72
2022-10-19T07:36:59.846Z,29.63
2022-10-19T07:40:04.837Z,29.55
2022-10-19T07:43:07.845Z,29.45
2022-10-19T07:46:14.065Z,29.44
2022-10-19T07:49:19.050Z,29.92
2022-10-19T07:52:22.167Z,30.09
2022-10-19T07:55:26.649Z,30.01
2022-10-19T07:58:29.754Z,30.01
2022-10-19T08:01:34.119Z,30.24
2022-10-19T08:08:02.310Z,30.01
2022-10-19T08:11:09.879Z,30.06
2022-10-19T08:14:12.861Z,30.14
2022-10-19T08:17:17.682Z,30.21
2022-10-19T08:20:21.228Z,29.92
2022-10-19T08:23:24.815Z,30.29
2022-10-19T08:26:31.585Z,30.35
2022-10-19T08:29:34.576Z,30.23
2022-10-19T08:32:37.564Z,30.38
2022-10-19T08:35:40.573Z,30.34
2022-10-19T08:38:45.168Z,30.39
2022-10-19T08:42:01.122Z,30.68
2022-10-19T08:45:17.653Z,30.35
2022-10-19T08:48:26.932Z,30.80
2022-10-19T08:51:34.368Z,30.67
2022-10-19T08:54:43.504Z,31.05
2022-10-19T08:57:54.931Z,31.22
2022-10-19T09:01:05.737Z,31.11
2022-10-19T09:04:15.843Z,30.91
2022-10-19T09:07:30.272Z,31.13
2022-10-19T09:10:36.826Z,31.52
2022-10-19T09:14:04.270Z,31.36
2022-10-19T09:17:13.831Z,31.64
2022-10-19T09:20:20.045Z,31.66
2022-10-19T09:23:29.947Z,31.62
2022-10-19T09:26:38.072Z,31.79
2022-10-19T09:29:46.074Z,32.04
2022-10-19T09:32:51.695Z,31.62
2022-10-19T09:35:57.803Z,32.05
2022-10-19T09:39:01.129Z,31.93
2022-10-19T09:42:11.617Z,31.79
2022-10-19T09:45:30.354Z,32.14
2022-10-19T09:48:40.745Z,32.10
2022-10-19T09:51:50.707Z,31.96
2022-10-19T09:55:02.296Z,31.89
2022-10-19T09:58:11.043Z,31.77
2022-10-19T10:01:40.140Z,32.35
2022-10-19T10:04:56.041Z,31.82
2022-10-19T10:07:59.206Z,32.33
2022-10-19T10:11:08.283Z,32.21
2022-10-19T10:14:21.257Z,32.48
2022-10-19T10:17:31.608Z,32.54
2022-10-19T10:20:34.612Z,32.52
2022-10-19T10:23:37.949Z,32.57
2022-10-19T10:26:43.106Z,32.34
2022-10-19T10:33:13.497Z,32.21
2022-10-19T10:36:30.373Z,32.15
2022-10-19T10:39:34.289Z,32.51
2022-10-19T10:42:42.781Z,32.85
2022-10-19T10:45:48.260Z,32.42
2022-10-19T10:48:58.317Z,32.58
2022-10-19T10:52:05.952Z,32.40
2022-10-19T10:55:18.674Z,32.79
2022-10-19T10:58:31.938Z,32.85
2022-10-19T11:01:41.354Z,32.59
2022-10-19T11:04:52.581Z,32.79
2022-10-19T11:08:02.213Z,32.88
2022-10-19T11:11:15.259Z,32.83
2022-10-19T11:14:35.167Z,32.62
2022-10-19T11:17:42.344Z,32.75
2022-10-19T11:20:56.614Z,32.67
2022-10-19T11:24:09.371Z,32.77
2022-10-19T11:27:23.334Z,32.91
2022-10-19T11:30:27.576Z,33.08
2022-10-19T11:33:44.429Z,32.99
2022-10-19T11:36:59.385Z,33.25
2022-10-19T11:40:13.638Z,33.05
2022-10-19T11:43:27.006Z,32.91
2022-10-19T11:46:38.930Z,33.30
2022-10-19T11:49:54.236Z,32.84
2022-10-19T11:53:08.849Z,33.12
2022-10-19T11:56:20.665Z,33.30
2022-10-19T11:59:34.915Z,33.07
2022-10-19T12:03:14.481Z,33.26
2022-10-19T12:06:25.537Z,32.93
2022-10-19T12:09:43.839Z,32.84
2022-10-19T12:12:51.114Z,33.27
2022-10-19T12:15:57.591Z,33.12
2022-10-19T12:19:03.977Z,32.88
2022-10-19T12:22:13.458Z,33.25
2022-10-19T12:25:19.401Z,32.92
2022-10-19T12:28:26.450Z,32.94
2022-10-19T12:31:30.818Z,33.21
2022-10-19T12:34:44.685Z,33.08
2022-10-19T12:37:55.498Z,32.98
2022-10-19T12:41:08.884Z,33.27
2022-10-19T12:44:57.866Z,33.33
2022-10-19T12:48:23.190Z,33.14
2022-10-19T12:51:26.255Z,33.07
2022-10-19T12:54:31.064Z,33.04
2022-10-19T12:57:40.512Z,33.12
2022-10-19T13:00:59.242Z,32.90
2022-10-19T13:04:12.111Z,33.19
2022-10-19T13:07:19.471Z,32.91
2022-10-19T13:10:25.717Z,32.93
2022-10-19T13:13:59.674Z,32.95
2022-10-19T13:17:03.469Z,32.90
2022-10-19T13:20:51.432Z,33.17
2022-10-19T13:24:35.004Z,32.89
2022-10-19T13:27:39.907Z,33.02
2022-10-19T13:31:25.868Z,32.94
2022-10-19T13:34:29.723Z,32.87
2022-10-19T13:37:34.785Z,33.12
2022-10-19T13:40:40.198Z,33.21
2022-10-19T13:43:53.559Z,33.22
2022-10-19T13:47:22.552Z,33.17
2022-10-19T13:50:39.160Z,33.38
2022-10-19T13:53:49.438Z,33.29
2022-10-19T13:57:07.638Z,33.15
2022-10-19T14:00:17.764Z,33.51
2022-10-19T14:03:36.039Z,33.24
2022-10-19T14:06:44.923Z,33.27
2022-10-19T14:10:03.326Z,33.37
2022-10-19T14:13:12.328Z,33.25
2022-10-19T14:16:21.364Z,33.47
2022-10-19T14:19:30.826Z,33.27
2022-10-19T14:22:34.979Z,33.61
2022-10-19T14:25:38.771Z,33.36
2022-10-19T14:28:43.314Z,33.54
2022-10-19T14:31:46.405Z,33.53
2022-10-19T14:34:51.398Z,33.27
2022-10-19T14:37:54.815Z,33.68
2022-10-19T14:40:57.823Z,33.46
2022-10-19T14:44:02.918Z,33.65
2022-10-19T14:47:16.180Z,33.65
2022-10-19T14:50:22.838Z,33.74
2022-10-19T14:53:34.959Z,33.77
2022-10-19T14:56:43.354Z,33.82
2022-10-19T14:59:48.806Z,33.77
2022-10-19T15:02:58.939Z,34.00
2022-10-19T15:06:07.293Z,34.02
2022-10-19T15:09:36.722Z,34.21
2022-10-19T15:12:43.301Z,34.39
2022-10-19T15:15:46.384Z,34.63
2022-10-19T15:18:50.233Z,34.55
2022-10-19T15:22:17.485Z,34.54
2022-10-19T15:25:30.420Z,34.72
2022-10-19T15:28:38.990Z,34.68
2022-10-19T15:31:44.540Z,35.06
2022-10-19T15:34:47.828Z,35.41
2022-10-19T15:37:52.532Z,35.66
2022-10-19T15:40:58.868Z,35.22
2022-10-19T15:44:04.237Z,35.51
2022-10-19T15:47:22.757Z,35.63
2022-10-19T15:50:37.662Z,35.62
2022-10-19T15:53:42.028Z,35.89
2022-10-19T15:56:46.755Z,35.86
2022-10-19T15:59:49.760Z,35.87
2022-10-19T16:02:52.774Z,35.86
2022-10-19T16:05:56.477Z,35.88
2022-10-19T16:09:01.476Z,36.09
2022-10-19T16:12:04.604Z,36.00
2022-10-19T16:15:08.616Z,35.95
2022-10-19T16:18:12.459Z,36.25
2022-10-19T16:21:16.694Z,36.33
2022-10-19T16:24:21.154Z,36.38
2022-10-19T16:27:24.313Z,36.19
2022-10-19T16:30:27.370Z,36.73
2022-10-19T16:33:30.423Z,36.68
2022-10-19T16:36:33.426Z,36.29
2022-10-19T16:39:37.821Z,36.53
2022-10-19T16:42:40.916Z,36.52
2022-10-19T16:45:44.330Z,36.95
2022-10-19T16:48:47.277Z,36.81
2022-10-19T16:51:53.207Z,36.98
2022-10-19T16:55:01.006Z,36.92
2022-10-19T16:58:04.103Z,37.35
2022-10-19T17:01:08.238Z,37.56
2022-10-19T17:04:11.575Z,37.76
2022-10-19T17:07:15.462Z,37.68
2022-10-19T17:10:20.071Z,37.62
2022-10-19T17:13:23.054Z,37.37
2022-10-19T17:16:27.759Z,37.65
2022-10-19T17:19:30.847Z,37.51
2022-10-19T17:22:34.296Z,37.55
2022-10-19T17:25:38.958Z,37.12
2022-10-19T17:28:43.572Z,37.41
2022-10-19T17:31:47.392Z,37.20
2022-10-19T17:34:50.545Z,37.46
2022-10-19T17:37:53.564Z,37.35
2022-10-19T17:41:02.069Z,37.04
2022-10-19T17:44:06.274Z,35.40
2022-10-19T17:47:09.291Z,33.93
2022-10-19T17:50:12.291Z,32.60
2022-10-19T17:53:15.295Z,32.49
2022-10-19T17:56:21.334Z,31.85
2022-10-19T17:59:34.848Z,31.62
2022-10-19T18:02:45.744Z,31.08
2022-10-19T18:05:57.343Z,31.04
2022-10-19T18:09:01.783Z,31.46
2022-10-19T18:12:07.515Z,31.18
2022-10-19T18:15:10.970Z,31.00
2022-10-19T18:18:14.001Z,31.00
2022-10-19T18:21:18.778Z,31.30
2022-10-19T18:24:21.778Z,31.22
2022-10-19T18:27:26.269Z,31.64
2022-10-19T18:30:29.420Z,32.08
2022-10-19T18:33:32.685Z,32.28
2022-10-19T18:36:35.948Z,32.53
2022-10-19T18:39:39.142Z,32.51
2022-10-19T18:42:43.628Z,32.51
2022-10-19T18:45:52.588Z,32.61
2022-10-19T18:48:56.134Z,32.50
2022-10-19T18:51:59.376Z,32.41
2022-10-19T18:55:02.405Z,32.47
2022-10-19T18:58:06.898Z,32.60
2022-10-19T19:01:12.715Z,32.42
2022-10-19T19:04:15.730Z,32.44
2022-10-19T19:07:19.486Z,32.24
2022-10-19T19:10:22.912Z,32.10
2022-10-19T19:13:27.834Z,32.44
2022-10-19T19:16:34.767Z,32.29
2022-10-19T19:19:37.802Z,32.15
2022-10-19T19:22:40.842Z,32.09
2022-10-19T19:25:43.880Z,32.09
2022-10-19T19:28:49.153Z,32.25
2022-10-19T19:31:54.632Z,31.96
2022-10-19T19:34:57.682Z,32.03
2022-10-19T19:38:00.806Z,32.23
2022-10-19T19:41:05.550Z,32.04
2022-10-19T19:44:09.994Z,32.67
2022-10-19T19:47:13.057Z,33.46
2022-10-19T19:50:16.251Z,33.89
2022-10-19T19:53:19.562Z,34.83
2022-10-19T19:56:22.600Z,34.78
2022-10-19T19:59:27.046Z,34.93
2022-10-19T20:02:32.879Z,35.22
2022-10-19T20:05:36.041Z,35.21
2022-10-19T20:08:39.280Z,35.56
2022-10-19T20:11:42.977Z,35.38
2022-10-19T20:14:47.498Z,35.98
2022-10-19T20:17:50.491Z,35.51
2022-10-19T20:20:53.496Z,35.79
2022-10-19T20:23:56.512Z,35.96
2022-10-19T20:26:59.544Z,36.03
2022-10-19T20:30:04.377Z,36.11
2022-10-19T20:33:07.362Z,36.15
2022-10-19T20:36:11.737Z,36.00
2022-10-19T20:39:14.696Z,36.16
2022-10-19T20:42:19.156Z,36.17
2022-10-19T20:45:23.798Z,36.26
2022-10-19T20:48:26.771Z,36.71
2022-10-19T20:51:32.642Z,36.39
2022-10-19T20:54:37.010Z,36.62
2022-10-19T20:57:40.047Z,36.70
2022-10-19T21:00:44.447Z,36.76
2022-10-19T21:03:48.604Z,36.65
2022-10-19T21:06:52.808Z,37.11
2022-10-19T21:09:56.085Z,36.73
2022-10-19T21:12:59.080Z,36.88
2022-10-19T21:16:11.247Z,36.90
2022-10-19T21:19:15.509Z,36.76
2022-10-19T21:22:18.484Z,36.87
2022-10-19T21:25:21.461Z,36.74
2022-10-19T21:28:24.463Z,37.02
2022-10-19T21:31:29.193Z,37.36
2022-10-19T21:34:32.866Z,37.23
2022-10-19T21:37:36.105Z,37.16
2022-10-19T21:40:39.483Z,37.28
2022-10-19T21:43:42.827Z,37.29
2022-10-19T21:46:48.422Z,37.31
2022-10-19T21:49:51.447Z,37.41
2022-10-19T21:52:54.447Z,37.42
2022-10-19T21:56:00.697Z,37.38
2022-10-19T21:59:04.398Z,37.42
2022-10-19T22:02:08.845Z,37.26
2022-10-19T22:05:11.914Z,37.71
2022-10-19T22:08:14.969Z,37.63
2022-10-19T22:11:17.980Z,37.65
2022-10-19T22:14:20.930Z,37.41
2022-10-19T22:17:25.422Z,37.56
2022-10-19T22:20:28.399Z,37.75
2022-10-19T22:23:31.398Z,37.90
2022-10-19T22:26:36.127Z,37.99
2022-10-19T22:29:39.161Z,37.76
2022-10-19T22:32:43.549Z,38.10
2022-10-19T22:35:54.818Z,38.03
2022-10-19T22:38:57.813Z,37.84
2022-10-19T22:42:00.804Z,38.17
2022-10-19T22:45:03.855Z,38.29
2022-10-19T22:48:08.377Z,38.35
2022-10-19T22:51:11.377Z,38.20
2022-10-19T22:54:14.461Z,38.23
2022-10-19T22:57:17.389Z,38.40
2022-10-19T23:00:20.549Z,38.22
2022-10-19T23:03:24.886Z,38.61
2022-10-19T23:06:28.086Z,38.53
2022-10-19T23:09:31.096Z,38.29
2022-10-19T23:12:34.184Z,38.60
2022-10-19T23:15:41.663Z,38.56
2022-10-19T23:18:48.246Z,38.74
2022-10-19T23:21:51.289Z,38.67
2022-10-19T23:24:54.275Z,38.53
2022-10-19T23:27:57.278Z,38.40
2022-10-19T23:31:04.674Z,39.04
2022-10-19T23:34:09.038Z,39.07
2022-10-19T23:37:12.005Z,38.88
2022-10-19T23:40:14.937Z,38.83
2022-10-19T23:43:17.905Z,38.73
2022-10-19T23:46:21.091Z,39.17
2022-10-19T23:49:25.481Z,38.85
2022-10-19T23:52:28.467Z,39.10
2022-10-19T23:55:31.477Z,39.30
2022-10-19T23:58:35.198Z,39.46
